sensor_id;sensor_type;location;lat;lon;timestamp;pressure;altitude;pressure_sealevel;temperature;humidity
6833;BME280;3454;42.654;23.378;2022-07-17T00:00:40;94831.47;;;22.72;70.96
6833;BME280;3454;42.654;23.378;2022-07-17T00:03:11;94836.06;;;22.70;71.37
6833;BME280;3454;42.654;23.378;2022-07-17T00:05:38;94832.47;;;22.65;71.63
6833;BME280;3454;42.654;23.378;2022-07-17T00:08:08;94830.88;;;22.64;72.00
6833;BME280;3454;42.654;23.378;2022-07-17T00:10:39;94836.28;;;22.62;71.93
6833;BME280;3454;42.654;23.378;2022-07-17T00:13:04;94840.44;;;22.63;71.78
6833;BME280;3454;42.654;23.378;2022-07-17T00:15:31;94835.06;;;22.58;72.25
6833;BME280;3454;42.654;23.378;2022-07-17T00:17:56;94842.22;;;22.56;72.19
6833;BME280;3454;42.654;23.378;2022-07-17T00:20:22;94834.03;;;22.46;72.71
6833;BME280;3454;42.654;23.378;2022-07-17T00:22:51;94853.38;;;22.50;72.43
6833;BME280;3454;42.654;23.378;2022-07-17T00:25:17;94853.34;;;22.43;72.54
6833;BME280;3454;42.654;23.378;2022-07-17T00:27:42;94855.13;;;22.36;72.75
6833;BME280;3454;42.654;23.378;2022-07-17T00:30:08;94851.97;;;22.47;73.25
6833;BME280;3454;42.654;23.378;2022-07-17T00:32:34;94855.56;;;22.40;73.09
6833;BME280;3454;42.654;23.378;2022-07-17T00:34:59;94856.53;;;22.45;73.09
6833;BME280;3454;42.654;23.378;2022-07-17T00:37:25;94847.00;;;22.46;73.87
6833;BME280;3454;42.654;23.378;2022-07-17T00:39:50;94850.75;;;22.37;73.51
6833;BME280;3454;42.654;23.378;2022-07-17T00:42:17;94858.75;;;22.42;72.92
6833;BME280;3454;42.654;23.378;2022-07-17T00:44:44;94862.91;;;22.36;72.93
6833;BME280;3454;42.654;23.378;2022-07-17T00:47:17;94854.91;;;22.25;73.53
6833;BME280;3454;42.654;23.378;2022-07-17T00:49:44;94867.06;;;22.24;73.37
6833;BME280;3454;42.654;23.378;2022-07-17T00:52:11;94868.47;;;22.27;73.40
6833;BME280;3454;42.654;23.378;2022-07-17T00:54:39;94855.31;;;22.22;73.31
6833;BME280;3454;42.654;23.378;2022-07-17T00:57:14;94852.09;;;22.13;73.15
6833;BME280;3454;42.654;23.378;2022-07-17T00:59:40;94860.66;;;22.20;72.97
6833;BME280;3454;42.654;23.378;2022-07-17T01:02:11;94866.25;;;22.17;73.32
6833;BME280;3454;42.654;23.378;2022-07-17T01:04:37;94867.81;;;22.05;73.84
6833;BME280;3454;42.654;23.378;2022-07-17T01:07:04;94870.78;;;22.02;73.45
6833;BME280;3454;42.654;23.378;2022-07-17T01:09:32;94873.56;;;22.01;73.69
6833;BME280;3454;42.654;23.378;2022-07-17T01:11:58;94880.75;;;22.05;73.32
6833;BME280;3454;42.654;23.378;2022-07-17T01:14:24;94884.53;;;22.03;73.46
6833;BME280;3454;42.654;23.378;2022-07-17T01:16:52;94873.81;;;22.06;73.23
6833;BME280;3454;42.654;23.378;2022-07-17T01:19:18;94888.53;;;22.05;73.26
6833;BME280;3454;42.654;23.378;2022-07-17T01:21:46;94880.97;;;22.04;73.23
6833;BME280;3454;42.654;23.378;2022-07-17T01:24:13;94885.75;;;22.07;73.01
6833;BME280;3454;42.654;23.378;2022-07-17T01:26:47;94883.56;;;22.04;73.38
6833;BME280;3454;42.654;23.378;2022-07-17T01:29:14;94888.91;;;22.02;72.64
6833;BME280;3454;42.654;23.378;2022-07-17T01:31:42;94884.09;;;21.93;72.94
6833;BME280;3454;42.654;23.378;2022-07-17T01:34:14;94888.09;;;21.95;72.86
6833;BME280;3454;42.654;23.378;2022-07-17T01:36:41;94874.19;;;22.03;73.25
6833;BME280;3454;42.654;23.378;2022-07-17T01:39:07;94883.34;;;22.05;72.87
6833;BME280;3454;42.654;23.378;2022-07-17T01:41:33;94881.94;;;22.03;72.33
6833;BME280;3454;42.654;23.378;2022-07-17T01:43:59;94869.97;;;21.95;73.42
6833;BME280;3454;42.654;23.378;2022-07-17T01:46:25;94895.88;;;21.95;72.00
6833;BME280;3454;42.654;23.378;2022-07-17T01:48:51;94886.13;;;21.97;72.44
6833;BME280;3454;42.654;23.378;2022-07-17T01:51:16;94904.44;;;21.96;71.56
6833;BME280;3454;42.654;23.378;2022-07-17T01:53:42;94898.44;;;21.95;71.19
6833;BME280;3454;42.654;23.378;2022-07-17T01:56:07;94900.84;;;21.97;71.34
6833;BME280;3454;42.654;23.378;2022-07-17T01:58:33;94896.09;;;22.07;71.45
6833;BME280;3454;42.654;23.378;2022-07-17T02:00:59;94894.91;;;22.09;71.60
6833;BME280;3454;42.654;23.378;2022-07-17T02:03:25;94895.72;;;22.16;72.21
6833;BME280;3454;42.654;23.378;2022-07-17T02:05:51;94886.59;;;22.27;72.43
6833;BME280;3454;42.654;23.378;2022-07-17T02:08:16;94906.38;;;22.41;71.78
6833;BME280;3454;42.654;23.378;2022-07-17T02:10:42;94923.69;;;22.34;70.36
6833;BME280;3454;42.654;23.378;2022-07-17T02:13:08;94920.69;;;22.37;70.88
6833;BME280;3454;42.654;23.378;2022-07-17T02:15:33;94920.94;;;22.42;70.60
6833;BME280;3454;42.654;23.378;2022-07-17T02:17:59;94919.72;;;22.44;70.43
6833;BME280;3454;42.654;23.378;2022-07-17T02:20:25;94912.91;;;22.24;70.52
6833;BME280;3454;42.654;23.378;2022-07-17T02:22:51;94907.31;;;22.27;71.45
6833;BME280;3454;42.654;23.378;2022-07-17T02:25:16;94915.31;;;22.32;70.51
6833;BME280;3454;42.654;23.378;2022-07-17T02:27:43;94912.56;;;22.40;70.43
6833;BME280;3454;42.654;23.378;2022-07-17T02:30:11;94912.56;;;22.40;70.89
6833;BME280;3454;42.654;23.378;2022-07-17T02:32:37;94914.09;;;22.21;70.38
6833;BME280;3454;42.654;23.378;2022-07-17T02:35:10;94903.56;;;22.29;71.04
6833;BME280;3454;42.654;23.378;2022-07-17T02:37:37;94900.13;;;22.22;71.22
6833;BME280;3454;42.654;23.378;2022-07-17T02:40:04;94920.63;;;22.11;70.06
6833;BME280;3454;42.654;23.378;2022-07-17T02:42:30;94903.88;;;22.07;71.33
6833;BME280;3454;42.654;23.378;2022-07-17T02:44:57;94902.03;;;21.94;71.41
6833;BME280;3454;42.654;23.378;2022-07-17T02:47:28;94891.69;;;22.01;72.06
6833;BME280;3454;42.654;23.378;2022-07-17T02:49:54;94908.75;;;21.82;71.19
6833;BME280;3454;42.654;23.378;2022-07-17T02:52:20;94900.34;;;21.80;71.42
6833;BME280;3454;42.654;23.378;2022-07-17T02:54:46;94908.81;;;21.95;71.81
6833;BME280;3454;42.654;23.378;2022-07-17T02:57:12;94909.16;;;21.86;71.47
6833;BME280;3454;42.654;23.378;2022-07-17T02:59:38;94925.28;;;21.81;71.16
6833;BME280;3454;42.654;23.378;2022-07-17T03:02:04;94905.19;;;21.55;71.78
6833;BME280;3454;42.654;23.378;2022-07-17T03:04:29;94904.09;;;21.43;72.74
6833;BME280;3454;42.654;23.378;2022-07-17T03:06:55;94890.97;;;21.38;73.36
6833;BME280;3454;42.654;23.378;2022-07-17T03:09:20;94900.50;;;21.38;73.50
6833;BME280;3454;42.654;23.378;2022-07-17T03:11:46;94905.47;;;21.39;73.62
6833;BME280;3454;42.654;23.378;2022-07-17T03:14:12;94905.94;;;21.49;73.71
6833;BME280;3454;42.654;23.378;2022-07-17T03:16:37;94911.19;;;21.62;73.40
6833;BME280;3454;42.654;23.378;2022-07-17T03:19:02;94910.03;;;21.71;73.83
6833;BME280;3454;42.654;23.378;2022-07-17T03:21:28;94915.13;;;21.52;73.71
6833;BME280;3454;42.654;23.378;2022-07-17T03:23:54;94919.53;;;21.58;73.79
6833;BME280;3454;42.654;23.378;2022-07-17T03:26:19;94920.53;;;21.63;73.51
6833;BME280;3454;42.654;23.378;2022-07-17T03:28:45;94944.34;;;21.46;72.73
6833;BME280;3454;42.654;23.378;2022-07-17T03:31:10;94935.16;;;21.43;72.78
6833;BME280;3454;42.654;23.378;2022-07-17T03:33:36;94934.28;;;21.64;72.98
6833;BME280;3454;42.654;23.378;2022-07-17T03:36:02;94935.06;;;21.58;73.23
6833;BME280;3454;42.654;23.378;2022-07-17T03:38:27;94941.34;;;21.77;72.77
6833;BME280;3454;42.654;23.378;2022-07-17T03:40:52;94956.88;;;21.77;71.73
6833;BME280;3454;42.654;23.378;2022-07-17T03:43:18;94961.63;;;21.73;71.82
6833;BME280;3454;42.654;23.378;2022-07-17T03:45:44;94952.59;;;21.62;72.37
6833;BME280;3454;42.654;23.378;2022-07-17T03:48:09;94947.78;;;21.59;72.59
6833;BME280;3454;42.654;23.378;2022-07-17T03:50:35;94966.06;;;21.51;72.24
6833;BME280;3454;42.654;23.378;2022-07-17T03:53:00;94948.66;;;21.66;73.22
6833;BME280;3454;42.654;23.378;2022-07-17T03:55:26;94986.44;;;21.61;70.71
6833;BME280;3454;42.654;23.378;2022-07-17T03:57:52;94998.94;;;21.57;70.43
6833;BME280;3454;42.654;23.378;2022-07-17T04:00:17;94989.94;;;21.47;71.43
6833;BME280;3454;42.654;23.378;2022-07-17T04:02:43;94989.34;;;21.51;71.63
6833;BME280;3454;42.654;23.378;2022-07-17T04:05:09;94988.19;;;21.54;71.54
6833;BME280;3454;42.654;23.378;2022-07-17T04:07:37;95003.16;;;21.37;70.65
6833;BME280;3454;42.654;23.378;2022-07-17T04:10:03;94994.44;;;21.38;71.11
6833;BME280;3454;42.654;23.378;2022-07-17T04:12:29;95020.63;;;21.29;69.62
6833;BME280;3454;42.654;23.378;2022-07-17T04:14:55;95021.19;;;21.24;69.11
6833;BME280;3454;42.654;23.378;2022-07-17T04:17:21;95016.63;;;21.26;69.27
6833;BME280;3454;42.654;23.378;2022-07-17T04:19:46;95027.59;;;21.28;69.10
6833;BME280;3454;42.654;23.378;2022-07-17T04:22:13;95055.84;;;21.30;67.72
6833;BME280;3454;42.654;23.378;2022-07-17T04:24:38;95050.97;;;21.41;68.18
6833;BME280;3454;42.654;23.378;2022-07-17T04:27:04;95076.00;;;21.34;66.79
6833;BME280;3454;42.654;23.378;2022-07-17T04:29:30;95074.13;;;21.49;67.07
6833;BME280;3454;42.654;23.378;2022-07-17T04:31:55;95070.16;;;21.53;66.76
6833;BME280;3454;42.654;23.378;2022-07-17T04:34:21;95050.25;;;21.75;67.44
6833;BME280;3454;42.654;23.378;2022-07-17T04:36:46;95103.63;;;21.76;64.98
6833;BME280;3454;42.654;23.378;2022-07-17T04:39:12;95096.25;;;21.80;65.10
6833;BME280;3454;42.654;23.378;2022-07-17T04:41:38;95115.03;;;21.82;63.64
6833;BME280;3454;42.654;23.378;2022-07-17T04:44:03;95149.25;;;21.77;61.40
6833;BME280;3454;42.654;23.378;2022-07-17T04:46:29;95124.09;;;21.92;63.01
6833;BME280;3454;42.654;23.378;2022-07-17T04:48:54;95145.34;;;21.88;61.78
6833;BME280;3454;42.654;23.378;2022-07-17T04:51:20;95155.28;;;21.84;61.13
6833;BME280;3454;42.654;23.378;2022-07-17T04:53:45;95166.06;;;21.88;59.99
6833;BME280;3454;42.654;23.378;2022-07-17T04:56:11;95137.84;;;21.93;61.32
6833;BME280;3454;42.654;23.378;2022-07-17T04:58:36;95135.66;;;21.96;61.71
6833;BME280;3454;42.654;23.378;2022-07-17T05:01:02;95153.63;;;21.98;61.08
6833;BME280;3454;42.654;23.378;2022-07-17T05:03:28;95129.09;;;21.94;62.69
6833;BME280;3454;42.654;23.378;2022-07-17T05:05:53;95126.38;;;22.02;62.90
6833;BME280;3454;42.654;23.378;2022-07-17T05:08:19;95127.22;;;22.09;63.57
6833;BME280;3454;42.654;23.378;2022-07-17T05:10:45;95185.59;;;22.11;60.34
6833;BME280;3454;42.654;23.378;2022-07-17T05:13:11;95160.53;;;22.18;61.67
6833;BME280;3454;42.654;23.378;2022-07-17T05:15:38;95184.31;;;22.22;60.26
6833;BME280;3454;42.654;23.378;2022-07-17T05:18:03;95188.25;;;22.18;59.89
6833;BME280;3454;42.654;23.378;2022-07-17T05:20:29;95203.41;;;22.21;58.50
6833;BME280;3454;42.654;23.378;2022-07-17T05:22:55;95208.78;;;22.19;57.90
6833;BME280;3454;42.654;23.378;2022-07-17T05:25:20;95219.50;;;22.16;57.13
6833;BME280;3454;42.654;23.378;2022-07-17T05:27:46;95231.56;;;22.24;56.27
6833;BME280;3454;42.654;23.378;2022-07-17T05:30:11;95222.97;;;22.23;55.76
6833;BME280;3454;42.654;23.378;2022-07-17T05:32:37;95201.34;;;22.37;57.11
6833;BME280;3454;42.654;23.378;2022-07-17T05:35:03;94967.44;;;22.63;72.83
6833;BME280;3454;42.654;23.378;2022-07-17T05:37:29;95135.25;;;22.82;63.12
6833;BME280;3454;42.654;23.378;2022-07-17T05:39:54;95170.88;;;23.08;61.65
6833;BME280;3454;42.654;23.378;2022-07-17T05:42:20;94982.88;;;23.17;72.33
6833;BME280;3454;42.654;23.378;2022-07-17T05:44:45;95195.69;;;23.23;59.33
6833;BME280;3454;42.654;23.378;2022-07-17T05:47:11;95197.50;;;23.23;57.93
6833;BME280;3454;42.654;23.378;2022-07-17T05:49:36;95078.38;;;23.54;67.21
6833;BME280;3454;42.654;23.378;2022-07-17T05:52:02;95079.81;;;23.89;68.24
6833;BME280;3454;42.654;23.378;2022-07-17T05:54:27;95129.94;;;23.96;63.43
6833;BME280;3454;42.654;23.378;2022-07-17T05:56:53;95057.22;;;24.09;68.52
6833;BME280;3454;42.654;23.378;2022-07-17T05:59:18;95010.38;;;24.36;72.46
6833;BME280;3454;42.654;23.378;2022-07-17T06:01:44;95126.69;;;24.66;65.81
6833;BME280;3454;42.654;23.378;2022-07-17T06:04:09;95078.03;;;24.86;68.06
6833;BME280;3454;42.654;23.378;2022-07-17T06:06:35;95282.34;;;24.82;54.19
6833;BME280;3454;42.654;23.378;2022-07-17T06:09:01;95198.03;;;25.03;59.97
6833;BME280;3454;42.654;23.378;2022-07-17T06:11:26;95159.69;;;25.30;62.36
6833;BME280;3454;42.654;23.378;2022-07-17T06:13:52;95159.66;;;25.36;62.24
6833;BME280;3454;42.654;23.378;2022-07-17T06:16:17;95157.44;;;25.46;61.19
6833;BME280;3454;42.654;23.378;2022-07-17T06:18:43;95335.72;;;25.31;47.58
6833;BME280;3454;42.654;23.378;2022-07-17T06:21:08;95279.53;;;24.90;49.15
6833;BME280;3454;42.654;23.378;2022-07-17T06:23:33;95287.50;;;24.24;47.80
6833;BME280;3454;42.654;23.378;2022-07-17T06:25:59;95287.22;;;23.99;48.45
6833;BME280;3454;42.654;23.378;2022-07-17T06:28:25;95260.84;;;24.02;49.47
6833;BME280;3454;42.654;23.378;2022-07-17T06:30:50;95270.41;;;23.88;49.01
6833;BME280;3454;42.654;23.378;2022-07-17T06:33:16;95273.94;;;23.68;48.42
6833;BME280;3454;42.654;23.378;2022-07-17T06:35:41;95272.06;;;23.42;49.03
6833;BME280;3454;42.654;23.378;2022-07-17T06:38:07;95259.09;;;23.49;48.92
6833;BME280;3454;42.654;23.378;2022-07-17T06:40:33;95251.78;;;23.72;49.60
6833;BME280;3454;42.654;23.378;2022-07-17T06:42:59;95228.41;;;23.72;50.81
6833;BME280;3454;42.654;23.378;2022-07-17T06:45:24;95235.75;;;23.62;50.19
6833;BME280;3454;42.654;23.378;2022-07-17T06:47:50;95229.00;;;23.61;50.63
6833;BME280;3454;42.654;23.378;2022-07-17T06:50:15;95254.91;;;23.54;49.22
6833;BME280;3454;42.654;23.378;2022-07-17T06:52:41;95237.59;;;23.68;50.06
6833;BME280;3454;42.654;23.378;2022-07-17T06:55:07;95245.00;;;23.84;50.05
6833;BME280;3454;42.654;23.378;2022-07-17T06:57:32;95253.59;;;23.71;49.60
6833;BME280;3454;42.654;23.378;2022-07-17T06:59:58;95261.63;;;23.89;48.53
6833;BME280;3454;42.654;23.378;2022-07-17T07:02:23;95242.66;;;24.02;49.79
6833;BME280;3454;42.654;23.378;2022-07-17T07:04:49;95215.06;;;23.88;51.40
6833;BME280;3454;42.654;23.378;2022-07-17T07:07:14;95230.22;;;23.78;50.75
6833;BME280;3454;42.654;23.378;2022-07-17T07:09:40;95237.59;;;23.74;50.10
6833;BME280;3454;42.654;23.378;2022-07-17T07:12:06;95251.00;;;23.71;49.62
6833;BME280;3454;42.654;23.378;2022-07-17T07:14:32;95239.97;;;23.63;50.14
6833;BME280;3454;42.654;23.378;2022-07-17T07:16:58;95237.22;;;23.77;50.97
6833;BME280;3454;42.654;23.378;2022-07-17T07:19:23;95239.47;;;23.93;50.60
6833;BME280;3454;42.654;23.378;2022-07-17T07:21:49;95197.69;;;23.95;52.86
6833;BME280;3454;42.654;23.378;2022-07-17T07:24:14;95207.66;;;23.98;52.63
6833;BME280;3454;42.654;23.378;2022-07-17T07:26:40;95215.31;;;24.06;52.20
6833;BME280;3454;42.654;23.378;2022-07-17T07:29:06;95219.94;;;24.24;52.17
6833;BME280;3454;42.654;23.378;2022-07-17T07:31:31;95248.88;;;24.14;49.76
6833;BME280;3454;42.654;23.378;2022-07-17T07:33:58;95253.09;;;24.28;49.82
6833;BME280;3454;42.654;23.378;2022-07-17T07:36:23;95221.09;;;24.34;51.79
6833;BME280;3454;42.654;23.378;2022-07-17T07:38:49;95196.72;;;24.48;52.87
6833;BME280;3454;42.654;23.378;2022-07-17T07:41:14;95231.72;;;24.65;51.33
6833;BME280;3454;42.654;23.378;2022-07-17T07:43:40;95266.72;;;24.43;48.99
6833;BME280;3454;42.654;23.378;2022-07-17T07:46:06;95231.13;;;24.50;51.18
6833;BME280;3454;42.654;23.378;2022-07-17T07:48:32;95262.94;;;24.52;50.02
6833;BME280;3454;42.654;23.378;2022-07-17T07:50:57;95265.13;;;24.68;49.19
6833;BME280;3454;42.654;23.378;2022-07-17T07:53:23;95287.13;;;24.66;47.60
6833;BME280;3454;42.654;23.378;2022-07-17T07:55:48;95281.91;;;24.59;47.79
6833;BME280;3454;42.654;23.378;2022-07-17T07:58:14;95248.31;;;24.71;49.16
6833;BME280;3454;42.654;23.378;2022-07-17T08:00:42;95236.50;;;24.88;50.62
6833;BME280;3454;42.654;23.378;2022-07-17T08:03:08;95284.53;;;24.85;48.25
6833;BME280;3454;42.654;23.378;2022-07-17T08:05:34;95291.34;;;24.80;47.43
6833;BME280;3454;42.654;23.378;2022-07-17T08:08:00;95275.94;;;24.85;47.91
6833;BME280;3454;42.654;23.378;2022-07-17T08:10:26;95292.34;;;24.92;47.15
6833;BME280;3454;42.654;23.378;2022-07-17T08:12:52;95290.34;;;24.87;47.26
6833;BME280;3454;42.654;23.378;2022-07-17T08:15:19;95282.94;;;24.84;47.66
6833;BME280;3454;42.654;23.378;2022-07-17T08:17:47;95279.13;;;24.87;48.18
6833;BME280;3454;42.654;23.378;2022-07-17T08:20:13;95294.13;;;24.85;47.60
6833;BME280;3454;42.654;23.378;2022-07-17T08:22:39;95304.97;;;24.88;46.90
6833;BME280;3454;42.654;23.378;2022-07-17T08:25:05;95300.34;;;24.90;46.57
6833;BME280;3454;42.654;23.378;2022-07-17T08:27:36;95283.13;;;25.03;47.10
6833;BME280;3454;42.654;23.378;2022-07-17T08:30:03;95262.66;;;25.19;48.63
6833;BME280;3454;42.654;23.378;2022-07-17T08:32:29;95244.19;;;25.34;49.44
6833;BME280;3454;42.654;23.378;2022-07-17T08:34:54;95269.19;;;25.48;48.33
6833;BME280;3454;42.654;23.378;2022-07-17T08:37:20;95329.09;;;25.54;45.10
6833;BME280;3454;42.654;23.378;2022-07-17T08:39:46;95306.38;;;25.68;46.11
6833;BME280;3454;42.654;23.378;2022-07-17T08:42:11;95300.97;;;25.69;46.38
6833;BME280;3454;42.654;23.378;2022-07-17T08:44:41;95348.31;;;25.53;44.03
6833;BME280;3454;42.654;23.378;2022-07-17T08:47:09;95329.69;;;25.50;44.33
6833;BME280;3454;42.654;23.378;2022-07-17T08:49:39;95320.06;;;25.57;44.81
6833;BME280;3454;42.654;23.378;2022-07-17T08:52:06;95314.63;;;25.65;44.74
6833;BME280;3454;42.654;23.378;2022-07-17T08:54:32;95317.16;;;25.78;44.96
6833;BME280;3454;42.654;23.378;2022-07-17T08:56:57;95334.56;;;25.84;43.27
6833;BME280;3454;42.654;23.378;2022-07-17T08:59:23;95313.69;;;25.97;44.45
6833;BME280;3454;42.654;23.378;2022-07-17T09:01:48;95303.25;;;25.97;44.87
6833;BME280;3454;42.654;23.378;2022-07-17T09:04:16;95298.44;;;26.07;44.91
6833;BME280;3454;42.654;23.378;2022-07-17T09:06:42;95319.13;;;25.89;43.43
6833;BME280;3454;42.654;23.378;2022-07-17T09:09:11;95314.53;;;25.91;43.10
6833;BME280;3454;42.654;23.378;2022-07-17T09:11:46;95312.41;;;26.19;43.20
6833;BME280;3454;42.654;23.378;2022-07-17T09:14:13;95312.97;;;26.21;43.25
6833;BME280;3454;42.654;23.378;2022-07-17T09:16:55;95278.63;;;26.31;45.09
6833;BME280;3454;42.654;23.378;2022-07-17T09:19:29;95318.19;;;26.52;43.25
6833;BME280;3454;42.654;23.378;2022-07-17T09:22:16;95296.19;;;26.73;44.06
6833;BME280;3454;42.654;23.378;2022-07-17T09:27:15;95337.41;;;27.14;42.15
6833;BME280;3454;42.654;23.378;2022-07-17T09:30:11;95354.75;;;26.77;40.81
6833;BME280;3454;42.654;23.378;2022-07-17T09:32:39;95359.34;;;26.82;40.69
6833;BME280;3454;42.654;23.378;2022-07-17T09:35:08;95319.06;;;27.20;41.86
6833;BME280;3454;42.654;23.378;2022-07-17T09:37:35;95360.34;;;27.05;39.96
6833;BME280;3454;42.654;23.378;2022-07-17T09:40:01;95314.81;;;27.44;42.15
6833;BME280;3454;42.654;23.378;2022-07-17T09:42:32;95319.09;;;27.75;42.17
6833;BME280;3454;42.654;23.378;2022-07-17T09:45:00;95335.94;;;27.79;41.05
6833;BME280;3454;42.654;23.378;2022-07-17T09:47:27;95381.19;;;27.79;39.30
6833;BME280;3454;42.654;23.378;2022-07-17T09:49:54;95371.44;;;27.68;39.03
6833;BME280;3454;42.654;23.378;2022-07-17T09:52:23;95388.00;;;27.80;38.33
6833;BME280;3454;42.654;23.378;2022-07-17T09:54:52;95351.09;;;27.88;38.89
6833;BME280;3454;42.654;23.378;2022-07-17T09:57:18;95361.72;;;27.93;38.93
6833;BME280;3454;42.654;23.378;2022-07-17T09:59:45;95377.19;;;27.77;37.84
6833;BME280;3454;42.654;23.378;2022-07-17T10:02:11;95315.16;;;27.84;40.76
6833;BME280;3454;42.654;23.378;2022-07-17T10:04:37;95352.84;;;27.94;38.68
6833;BME280;3454;42.654;23.378;2022-07-17T10:07:03;95359.56;;;28.20;38.56
6833;BME280;3454;42.654;23.378;2022-07-17T10:09:30;95361.16;;;28.51;37.83
6833;BME280;3454;42.654;23.378;2022-07-17T10:11:56;95361.59;;;28.66;37.88
6833;BME280;3454;42.654;23.378;2022-07-17T10:14:22;95385.75;;;28.79;37.05
6833;BME280;3454;42.654;23.378;2022-07-17T10:16:48;95384.19;;;28.90;36.83
6833;BME280;3454;42.654;23.378;2022-07-17T10:19:19;95380.28;;;28.81;36.30
6833;BME280;3454;42.654;23.378;2022-07-17T10:21:59;95379.28;;;28.93;36.06
6833;BME280;3454;42.654;23.378;2022-07-17T10:24:27;95372.41;;;29.34;36.17
6833;BME280;3454;42.654;23.378;2022-07-17T10:26:53;95336.75;;;29.21;37.43
6833;BME280;3454;42.654;23.378;2022-07-17T10:29:34;95348.25;;;29.20;36.79
6833;BME280;3454;42.654;23.378;2022-07-17T10:32:07;95366.00;;;29.07;36.31
6833;BME280;3454;42.654;23.378;2022-07-17T10:34:39;95350.84;;;29.43;35.93
6833;BME280;3454;42.654;23.378;2022-07-17T10:37:26;95355.56;;;29.18;35.98
6833;BME280;3454;42.654;23.378;2022-07-17T10:45:11;95343.34;;;29.58;36.01
6833;BME280;3454;42.654;23.378;2022-07-17T10:48:01;95349.16;;;29.83;35.32
6833;BME280;3454;42.654;23.378;2022-07-17T10:53:07;95361.06;;;30.03;35.04
6833;BME280;3454;42.654;23.378;2022-07-17T10:55:34;95316.78;;;29.55;36.29
6833;BME280;3454;42.654;23.378;2022-07-17T10:58:01;95327.44;;;30.00;36.09
6833;BME280;3454;42.654;23.378;2022-07-17T11:00:27;95331.47;;;29.79;35.43
6833;BME280;3454;42.654;23.378;2022-07-17T11:02:53;95319.28;;;29.73;36.48
6833;BME280;3454;42.654;23.378;2022-07-17T11:05:19;95316.69;;;30.01;35.77
6833;BME280;3454;42.654;23.378;2022-07-17T11:07:55;95329.91;;;30.34;35.28
6833;BME280;3454;42.654;23.378;2022-07-17T11:10:24;95335.13;;;30.62;35.58
6833;BME280;3454;42.654;23.378;2022-07-17T11:12:51;95323.31;;;30.60;35.02
6833;BME280;3454;42.654;23.378;2022-07-17T11:15:17;95284.06;;;31.03;36.88
6833;BME280;3454;42.654;23.378;2022-07-17T11:17:47;95293.75;;;31.19;36.06
6833;BME280;3454;42.654;23.378;2022-07-17T11:20:13;95307.41;;;31.16;35.87
6833;BME280;3454;42.654;23.378;2022-07-17T11:22:39;95281.91;;;31.17;36.22
6833;BME280;3454;42.654;23.378;2022-07-17T11:25:05;95298.50;;;30.84;35.45
6833;BME280;3454;42.654;23.378;2022-07-17T11:27:39;95302.34;;;30.32;35.28
6833;BME280;3454;42.654;23.378;2022-07-17T11:30:05;95302.50;;;29.86;34.56
6833;BME280;3454;42.654;23.378;2022-07-17T11:32:38;95308.81;;;29.50;34.63
6833;BME280;3454;42.654;23.378;2022-07-17T11:35:24;95282.56;;;29.61;35.64
6833;BME280;3454;42.654;23.378;2022-07-17T11:37:50;95273.47;;;29.75;36.11
6833;BME280;3454;42.654;23.378;2022-07-17T11:40:16;95268.03;;;30.22;36.38
6833;BME280;3454;42.654;23.378;2022-07-17T11:42:41;95298.59;;;30.16;34.71
6833;BME280;3454;42.654;23.378;2022-07-17T11:45:08;95298.84;;;29.87;34.27
6833;BME280;3454;42.654;23.378;2022-07-17T11:47:34;95298.97;;;30.08;34.70
6833;BME280;3454;42.654;23.378;2022-07-17T11:50:05;95244.63;;;30.20;36.35
6833;BME280;3454;42.654;23.378;2022-07-17T11:52:48;95262.09;;;30.59;35.58
6833;BME280;3454;42.654;23.378;2022-07-17T11:55:14;95260.19;;;30.38;35.68
6833;BME280;3454;42.654;23.378;2022-07-17T11:57:48;95235.72;;;29.76;36.51
6833;BME280;3454;42.654;23.378;2022-07-17T12:00:17;95261.03;;;29.59;35.87
6833;BME280;3454;42.654;23.378;2022-07-17T12:02:44;95278.91;;;29.86;34.55
6833;BME280;3454;42.654;23.378;2022-07-17T12:05:10;95261.09;;;29.36;35.15
6833;BME280;3454;42.654;23.378;2022-07-17T12:07:46;95210.19;;;29.09;36.79
6833;BME280;3454;42.654;23.378;2022-07-17T12:10:16;95180.88;;;29.47;38.18
6833;BME280;3454;42.654;23.378;2022-07-17T12:13:01;95233.09;;;30.21;36.26
6833;BME280;3454;42.654;23.378;2022-07-17T12:18:03;95186.88;;;29.87;38.17
6833;BME280;3454;42.654;23.378;2022-07-17T12:20:47;95165.00;;;29.81;38.99
6833;BME280;3454;42.654;23.378;2022-07-17T12:23:33;95145.69;;;29.31;40.31
6833;BME280;3454;42.654;23.378;2022-07-17T12:28:35;95176.44;;;29.92;38.72
6833;BME280;3454;42.654;23.378;2022-07-17T12:31:01;95201.00;;;30.31;37.82
6833;BME280;3454;42.654;23.378;2022-07-17T12:33:27;95190.81;;;30.18;38.02
6833;BME280;3454;42.654;23.378;2022-07-17T12:35:53;95167.31;;;29.66;39.34
6833;BME280;3454;42.654;23.378;2022-07-17T12:38:19;95197.81;;;29.16;38.15
6833;BME280;3454;42.654;23.378;2022-07-17T12:40:44;95203.41;;;28.96;37.18
6833;BME280;3454;42.654;23.378;2022-07-17T12:43:10;95175.94;;;28.99;38.54
6833;BME280;3454;42.654;23.378;2022-07-17T12:45:36;95175.97;;;28.76;38.95
6833;BME280;3454;42.654;23.378;2022-07-17T12:48:01;95155.16;;;28.69;40.10
6833;BME280;3454;42.654;23.378;2022-07-17T12:50:27;95135.63;;;29.00;41.10
6833;BME280;3454;42.654;23.378;2022-07-17T12:52:53;95116.41;;;28.83;41.35
6833;BME280;3454;42.654;23.378;2022-07-17T12:55:19;95122.38;;;28.44;41.20
6833;BME280;3454;42.654;23.378;2022-07-17T12:57:44;95143.41;;;28.26;40.51
6833;BME280;3454;42.654;23.378;2022-07-17T13:00:10;95126.88;;;28.02;41.30
6833;BME280;3454;42.654;23.378;2022-07-17T13:02:36;95114.75;;;28.07;41.75
6833;BME280;3454;42.654;23.378;2022-07-17T13:05:02;95084.81;;;28.27;43.21
6833;BME280;3454;42.654;23.378;2022-07-17T13:07:27;95115.06;;;27.99;41.16
6833;BME280;3454;42.654;23.378;2022-07-17T13:09:53;95098.25;;;27.95;42.32
6833;BME280;3454;42.654;23.378;2022-07-17T13:12:19;95093.09;;;27.89;42.38
6833;BME280;3454;42.654;23.378;2022-07-17T13:14:51;95053.78;;;28.07;44.06
6833;BME280;3454;42.654;23.378;2022-07-17T13:17:16;95077.09;;;28.20;43.27
6833;BME280;3454;42.654;23.378;2022-07-17T13:19:42;95082.00;;;29.02;43.25
6833;BME280;3454;42.654;23.378;2022-07-17T13:22:07;95111.09;;;29.74;41.80
6833;BME280;3454;42.654;23.378;2022-07-17T13:24:33;95137.56;;;30.34;40.64